createdAt,value
2019-04-30T00:01:59.064Z,70.72
2019-04-30T00:04:34.583Z,70.27
2019-04-30T00:07:01.269Z,70.27
2019-04-30T00:09:30.957Z,70.84
2019-04-30T00:12:01.408Z,71.43
2019-04-30T00:14:37.246Z,72.78
2019-04-30T00:17:02.053Z,72.66
2019-04-30T00:19:31.477Z,72.12
2019-04-30T00:22:00.884Z,72.92
2019-04-30T00:24:30.310Z,71.71
2019-04-30T00:26:59.777Z,69.71
2019-04-30T00:29:30.948Z,71.68
2019-04-30T00:32:04.415Z,72.53
2019-04-30T00:34:37.899Z,71.75
2019-04-30T00:37:07.406Z,72.83
2019-04-30T00:39:35.509Z,73.51
2019-04-30T00:42:05.239Z,73.42
2019-04-30T00:44:35.679Z,73.85
2019-04-30T00:47:08.235Z,74.12
2019-04-30T00:49:37.805Z,74.24
2019-04-30T00:52:07.235Z,73.95
2019-04-30T00:54:36.621Z,73.44
2019-04-30T00:57:07.628Z,73.98
2019-04-30T00:59:39.741Z,74.77
2019-04-30T01:02:30.478Z,74.69
2019-04-30T01:05:05.093Z,74.11
2019-04-30T01:07:28.912Z,73.33
2019-04-30T01:09:58.305Z,72.98
2019-04-30T01:12:33.500Z,73.22
2019-04-30T01:14:59.052Z,73.33
2019-04-30T01:17:30.285Z,74.03
2019-04-30T01:20:00.032Z,72.79
2019-04-30T01:22:32.890Z,72.50
2019-04-30T01:25:08.010Z,73.16
2019-04-30T01:27:32.170Z,74.03
2019-04-30T01:30:02.103Z,73.76
2019-04-30T01:32:31.540Z,74.00
2019-04-30T01:35:01.002Z,74.63
2019-04-30T01:37:32.853Z,74.89
2019-04-30T01:40:03.198Z,74.92
2019-04-30T01:42:33.472Z,75.56
2019-04-30T01:45:03.046Z,75.97
2019-04-30T01:47:32.466Z,76.07
2019-04-30T01:50:04.851Z,76.47
2019-04-30T01:52:50.532Z,76.35
2019-04-30T01:55:22.202Z,76.07
2019-04-30T01:57:59.212Z,76.29
2019-04-30T02:00:35.947Z,76.96
2019-04-30T02:03:05.436Z,77.47
2019-04-30T02:05:34.829Z,77.45
2019-04-30T02:08:04.250Z,77.24
2019-04-30T02:10:33.638Z,77.72
2019-04-30T02:13:03.136Z,77.75
2019-04-30T02:15:32.539Z,77.78
2019-04-30T02:18:01.987Z,78.44
2019-04-30T02:20:31.387Z,78.40
2019-04-30T02:23:00.857Z,76.69
2019-04-30T02:25:30.259Z,76.87
2019-04-30T02:27:59.775Z,76.22
2019-04-30T02:30:30.866Z,75.90
2019-04-30T02:33:00.922Z,76.14
2019-04-30T02:35:40.961Z,75.84
2019-04-30T02:38:14.982Z,75.72
2019-04-30T02:40:45.125Z,75.83
2019-04-30T02:43:15.262Z,76.55
2019-04-30T02:45:49.605Z,77.22
2019-04-30T02:48:23.084Z,77.14
2019-04-30T02:50:54.514Z,77.18
2019-04-30T02:53:52.703Z,77.05
2019-04-30T02:56:26.554Z,76.98
2019-04-30T02:58:54.896Z,77.05
2019-04-30T03:01:24.339Z,76.61
2019-04-30T03:03:53.745Z,76.39
2019-04-30T03:06:23.676Z,76.45
2019-04-30T03:08:53.387Z,76.19
2019-04-30T03:11:22.911Z,77.30
2019-04-30T03:13:52.314Z,77.26
2019-04-30T03:16:23.399Z,77.59
2019-04-30T03:18:54.467Z,77.57
2019-04-30T03:21:41.828Z,78.04
2019-04-30T03:24:11.567Z,77.94
2019-04-30T03:26:41.038Z,78.01
2019-04-30T03:29:11.563Z,78.07
2019-04-30T03:31:44.432Z,77.81
2019-04-30T03:34:17.957Z,78.00
2019-04-30T03:36:43.404Z,78.17
2019-04-30T03:39:12.832Z,78.00
2019-04-30T03:41:42.303Z,77.83
2019-04-30T03:44:21.654Z,77.59
2019-04-30T03:46:42.912Z,77.51
2019-04-30T03:49:13.245Z,77.14
2019-04-30T03:51:43.106Z,77.16
2019-04-30T03:54:12.556Z,77.00
2019-04-30T03:56:42.732Z,76.96
2019-04-30T03:59:12.239Z,77.00
2019-04-30T04:01:49.883Z,77.07
2019-04-30T04:04:21.093Z,77.15
2019-04-30T04:07:00.032Z,77.08
2019-04-30T04:09:30.581Z,77.14
2019-04-30T04:12:20.410Z,76.98
2019-04-30T04:14:50.899Z,77.10
2019-04-30T04:17:21.765Z,77.29
2019-04-30T04:19:51.878Z,77.40
2019-04-30T04:22:21.579Z,77.66
2019-04-30T04:24:51.027Z,77.88
2019-04-30T04:27:20.550Z,78.25
2019-04-30T04:29:51.117Z,78.28
2019-04-30T04:32:24.237Z,78.13
2019-04-30T04:34:51.980Z,78.06
2019-04-30T04:37:21.415Z,77.69
2019-04-30T04:39:50.844Z,77.78
2019-04-30T04:42:20.248Z,77.50
2019-04-30T04:44:50.393Z,77.52
2019-04-30T04:47:20.419Z,77.63
2019-04-30T04:49:53.565Z,77.63
2019-04-30T04:52:21.965Z,77.55
2019-04-30T04:54:51.748Z,77.46
2019-04-30T04:57:22.657Z,77.35
2019-04-30T04:59:52.561Z,77.18
2019-04-30T05:02:39.915Z,76.98
2019-04-30T05:05:09.886Z,76.61
2019-04-30T05:07:39.946Z,76.54
2019-04-30T05:10:09.955Z,76.58
2019-04-30T05:12:39.846Z,76.68
2019-04-30T05:15:09.779Z,76.70
2019-04-30T05:17:39.815Z,76.33
2019-04-30T05:20:10.252Z,76.02
2019-04-30T05:22:39.623Z,75.78
2019-04-30T05:25:09.282Z,75.58
2019-04-30T05:27:39.290Z,75.49
2019-04-30T05:30:12.091Z,74.96
2019-04-30T05:32:40.636Z,74.29
2019-04-30T05:35:10.528Z,74.28
2019-04-30T05:37:39.934Z,74.25
2019-04-30T05:40:09.940Z,73.88
2019-04-30T05:42:39.352Z,73.71
2019-04-30T05:45:09.652Z,73.61
2019-04-30T05:47:39.364Z,73.62
2019-04-30T05:50:09.323Z,73.76
2019-04-30T05:52:39.780Z,73.86
2019-04-30T05:55:09.560Z,73.60
2019-04-30T05:57:52.439Z,73.24
2019-04-30T06:00:10.995Z,73.52
2019-04-30T06:02:40.402Z,73.79
2019-04-30T06:05:10.585Z,73.80
2019-04-30T06:07:40.165Z,74.15
2019-04-30T06:10:14.103Z,73.56
2019-04-30T06:12:49.344Z,73.24
2019-04-30T06:15:29.730Z,73.55
2019-04-30T06:18:04.009Z,73.57
2019-04-30T06:20:30.659Z,73.17
2019-04-30T06:23:00.312Z,73.58
2019-04-30T06:25:37.218Z,72.81
2019-04-30T06:28:02.382Z,72.74
2019-04-30T06:30:32.356Z,72.56
2019-04-30T06:33:02.502Z,72.89
2019-04-30T06:35:32.288Z,72.86
2019-04-30T06:38:01.699Z,72.57
2019-04-30T06:40:31.297Z,72.14
2019-04-30T06:43:01.071Z,71.82
2019-04-30T06:45:32.608Z,71.53
2019-04-30T06:48:03.825Z,70.89
2019-04-30T06:50:33.624Z,70.62
2019-04-30T06:53:03.030Z,70.97
2019-04-30T06:55:32.474Z,71.14
2019-04-30T06:58:11.879Z,71.11
2019-04-30T07:00:40.539Z,70.56
2019-04-30T07:03:10.111Z,70.49
2019-04-30T07:05:39.640Z,69.78
2019-04-30T07:08:36.110Z,68.18
2019-04-30T07:11:16.145Z,66.61
2019-04-30T07:13:47.202Z,65.79
2019-04-30T07:16:18.862Z,65.36
2019-04-30T07:18:48.878Z,65.70
2019-04-30T07:21:19.858Z,65.69
2019-04-30T07:23:49.391Z,65.67
2019-04-30T07:26:23.180Z,64.95
2019-04-30T07:28:54.877Z,65.01
2019-04-30T07:31:21.043Z,63.62
2019-04-30T07:33:53.559Z,62.69
2019-04-30T07:36:21.583Z,62.83
2019-04-30T07:38:56.165Z,62.52
2019-04-30T07:41:22.114Z,61.60
2019-04-30T07:43:51.517Z,61.24
2019-04-30T07:46:20.950Z,59.63
2019-04-30T07:48:50.431Z,58.43
2019-04-30T07:51:21.391Z,58.04
2019-04-30T07:53:50.962Z,58.42
2019-04-30T07:56:27.782Z,59.04
2019-04-30T07:58:51.497Z,58.69
2019-04-30T08:01:21.154Z,57.24
2019-04-30T08:03:59.046Z,56.98
2019-04-30T08:06:31.003Z,58.04
2019-04-30T08:09:01.274Z,56.35
2019-04-30T08:11:34.491Z,55.91
2019-04-30T08:14:02.563Z,54.71
2019-04-30T08:16:32.415Z,54.38
2019-04-30T08:19:01.830Z,53.71
2019-04-30T08:21:31.240Z,53.62
2019-04-30T08:24:01.275Z,51.40
2019-04-30T08:26:30.748Z,51.46
2019-04-30T08:29:00.200Z,51.05
2019-04-30T08:31:29.606Z,52.38
2019-04-30T08:33:59.251Z,50.27
2019-04-30T08:36:29.790Z,49.90
2019-04-30T08:39:01.311Z,49.45
2019-04-30T08:41:30.725Z,49.35
2019-04-30T08:44:00.160Z,49.00
2019-04-30T08:46:29.635Z,49.17
2019-04-30T08:51:34.403Z,49.61
2019-04-30T08:54:04.666Z,48.65
2019-04-30T08:56:34.070Z,47.19
2019-04-30T08:59:03.743Z,44.79
2019-04-30T09:01:33.296Z,42.55
2019-04-30T09:04:02.725Z,36.89
2019-04-30T09:06:32.132Z,32.67
2019-04-30T09:09:02.832Z,33.16
2019-04-30T09:11:48.840Z,33.67
2019-04-30T09:14:03.382Z,33.01
2019-04-30T09:16:32.835Z,33.97
2019-04-30T09:19:02.223Z,35.70
2019-04-30T09:21:31.743Z,35.53
2019-04-30T09:24:01.258Z,37.16
2019-04-30T09:26:30.694Z,36.99
2019-04-30T09:29:00.115Z,36.28
2019-04-30T09:31:29.846Z,34.74
2019-04-30T09:34:00.939Z,32.56
2019-04-30T09:36:30.627Z,34.02
2019-04-30T09:39:01.399Z,34.31
2019-04-30T09:41:31.040Z,33.36
2019-04-30T09:44:00.466Z,34.41
2019-04-30T09:46:30.155Z,33.25
2019-04-30T09:48:59.908Z,33.39
2019-04-30T09:51:30.914Z,32.46
2019-04-30T09:54:03.620Z,32.73
2019-04-30T09:56:31.703Z,31.69
2019-04-30T09:59:01.132Z,30.91
2019-04-30T10:01:32.746Z,30.48
2019-04-30T10:04:02.268Z,28.50
2019-04-30T10:06:39.738Z,28.11
2019-04-30T10:09:03.688Z,25.36
2019-04-30T10:11:34.778Z,25.44
2019-04-30T10:14:04.345Z,28.42
2019-04-30T10:16:35.402Z,24.11
2019-04-30T10:19:05.146Z,24.11
2019-04-30T10:21:34.571Z,20.49
2019-04-30T10:24:13.154Z,17.15
2019-04-30T10:26:35.424Z,15.37
2019-04-30T10:29:05.803Z,15.17
2019-04-30T10:31:35.223Z,15.85
2019-04-30T10:34:04.976Z,15.12
2019-04-30T10:36:34.402Z,14.06
2019-04-30T10:39:05.403Z,14.39
2019-04-30T10:41:35.007Z,14.31
2019-04-30T10:44:05.568Z,14.66
2019-04-30T10:46:35.175Z,14.42
2019-04-30T10:49:05.419Z,13.33
2019-04-30T10:51:34.837Z,13.79
2019-04-30T10:54:04.415Z,12.42
2019-04-30T10:56:34.683Z,13.28
2019-04-30T10:59:04.479Z,13.32
2019-04-30T11:01:34.037Z,12.87
2019-04-30T11:04:04.137Z,13.76
2019-04-30T11:06:33.563Z,14.28
2019-04-30T11:09:03.404Z,13.57
2019-04-30T11:11:32.809Z,12.71
2019-04-30T11:14:02.252Z,12.96
2019-04-30T11:16:31.653Z,13.50
2019-04-30T11:19:01.202Z,13.25
2019-04-30T11:21:30.813Z,12.84
2019-04-30T11:24:00.541Z,12.82
2019-04-30T11:26:31.958Z,12.81
2019-04-30T11:29:01.560Z,13.45
2019-04-30T11:31:33.045Z,13.80
2019-04-30T11:34:03.693Z,14.12
2019-04-30T11:36:33.245Z,13.58
2019-04-30T11:39:02.686Z,12.58
2019-04-30T11:41:33.327Z,11.28
2019-04-30T11:44:02.892Z,11.48
2019-04-30T11:46:38.697Z,12.97
2019-04-30T11:49:09.691Z,13.66
2019-04-30T11:51:39.328Z,12.31
2019-04-30T11:54:09.011Z,11.92
2019-04-30T11:56:38.487Z,12.86
2019-04-30T11:59:08.704Z,14.54
2019-04-30T12:01:39.017Z,12.40
2019-04-30T12:04:09.334Z,10.74
2019-04-30T12:06:39.478Z,13.00
2019-04-30T12:09:23.990Z,12.26
2019-04-30T12:11:53.406Z,12.41
2019-04-30T12:14:22.842Z,14.06
2019-04-30T12:16:52.252Z,15.01
2019-04-30T12:19:21.678Z,13.00
2019-04-30T12:21:51.079Z,11.46
2019-04-30T12:24:20.789Z,13.57
2019-04-30T12:26:50.269Z,14.36
2019-04-30T12:29:19.706Z,13.25
2019-04-30T12:31:49.123Z,14.47
2019-04-30T12:34:18.561Z,16.82
2019-04-30T12:36:49.677Z,17.68
2019-04-30T12:39:19.184Z,18.35
2019-04-30T12:41:48.963Z,18.00
2019-04-30T12:44:18.399Z,19.59
2019-04-30T12:46:48.613Z,20.84
2019-04-30T12:49:19.005Z,23.14
2019-04-30T12:51:52.912Z,21.81
2019-04-30T12:54:40.412Z,23.12
2019-04-30T12:57:14.410Z,23.25
2019-04-30T12:59:43.833Z,23.98
2019-04-30T13:02:13.246Z,23.17
2019-04-30T13:04:42.677Z,22.55
2019-04-30T13:07:13.011Z,22.76
2019-04-30T13:09:43.249Z,23.05
2019-04-30T13:12:13.625Z,23.89
2019-04-30T13:14:51.723Z,25.19
2019-04-30T13:17:15.020Z,24.30
2019-04-30T13:19:44.619Z,26.65
2019-04-30T13:22:14.023Z,26.92
2019-04-30T13:24:43.566Z,26.27
2019-04-30T13:27:12.947Z,23.59
2019-04-30T13:29:44.021Z,23.74
2019-04-30T13:32:13.423Z,24.18
2019-04-30T13:34:56.281Z,23.71
2019-04-30T13:37:28.961Z,25.27
2019-04-30T13:40:15.323Z,23.98
2019-04-30T13:42:46.377Z,25.28
2019-04-30T13:45:16.674Z,24.84
2019-04-30T13:47:46.213Z,24.38
2019-04-30T13:50:16.169Z,24.06
2019-04-30T13:52:45.580Z,24.00
2019-04-30T13:55:15.002Z,24.18
2019-04-30T13:57:44.402Z,24.56
2019-04-30T14:00:19.128Z,25.25
2019-04-30T14:02:50.170Z,27.30
2019-04-30T14:05:19.617Z,24.00
2019-04-30T14:08:06.043Z,23.40
2019-04-30T14:10:39.191Z,23.16
2019-04-30T14:13:09.533Z,23.47
2019-04-30T14:15:38.976Z,23.67
2019-04-30T14:18:09.330Z,24.13
2019-04-30T14:20:38.911Z,23.32
2019-04-30T14:23:08.579Z,23.35
2019-04-30T14:25:39.510Z,23.33
2019-04-30T14:28:09.494Z,23.70
2019-04-30T14:30:39.345Z,25.76
2019-04-30T14:33:09.441Z,28.01
2019-04-30T14:35:39.191Z,28.67
2019-04-30T14:38:09.058Z,26.62
2019-04-30T14:40:40.502Z,27.78
2019-04-30T14:43:12.650Z,26.71
2019-04-30T14:45:50.197Z,26.58
2019-04-30T14:48:39.208Z,25.74
2019-04-30T14:51:07.620Z,27.11
2019-04-30T14:53:41.429Z,27.30
2019-04-30T14:56:19.638Z,27.28
2019-04-30T14:59:00.135Z,24.61
2019-04-30T15:01:33.731Z,27.24
2019-04-30T15:04:03.120Z,26.38
2019-04-30T15:06:32.548Z,26.90
2019-04-30T15:09:01.957Z,25.62
2019-04-30T15:11:31.386Z,26.79
2019-04-30T15:14:00.794Z,24.69
2019-04-30T15:16:30.285Z,26.09
2019-04-30T15:18:59.696Z,24.53
2019-04-30T15:21:29.226Z,25.76
2019-04-30T15:24:01.647Z,25.31
2019-04-30T15:26:31.167Z,26.57
2019-04-30T15:29:00.568Z,24.63
2019-04-30T15:31:30.001Z,24.42
2019-04-30T15:34:03.709Z,24.26
2019-04-30T15:36:33.213Z,24.47
2019-04-30T15:39:10.065Z,24.94
2019-04-30T15:41:39.501Z,25.12
2019-04-30T15:44:08.977Z,26.73
2019-04-30T15:46:38.539Z,25.61
2019-04-30T15:49:08.122Z,23.52
2019-04-30T15:51:37.552Z,23.06
2019-04-30T15:54:07.205Z,24.69
2019-04-30T15:56:39.955Z,25.32
2019-04-30T15:59:21.231Z,24.91
2019-04-30T16:01:54.727Z,25.61
2019-04-30T16:04:25.767Z,24.63
2019-04-30T16:06:55.199Z,23.98
2019-04-30T16:09:42.465Z,23.70
2019-04-30T16:12:29.700Z,24.20
2019-04-30T16:14:59.132Z,24.97
2019-04-30T16:17:29.186Z,26.41
2019-04-30T16:19:58.737Z,27.41
2019-04-30T16:22:29.166Z,27.34
2019-04-30T16:25:00.444Z,27.41
2019-04-30T16:27:29.872Z,25.05
2019-04-30T16:29:59.567Z,26.48
2019-04-30T16:32:29.245Z,27.56
2019-04-30T16:34:59.285Z,27.47
2019-04-30T16:37:28.895Z,27.57
2019-04-30T16:39:58.224Z,27.84
2019-04-30T16:42:29.058Z,27.83
2019-04-30T16:45:00.529Z,27.86
2019-04-30T16:47:29.793Z,28.47
2019-04-30T16:49:59.227Z,27.80
2019-04-30T16:52:29.435Z,28.63
2019-04-30T16:54:58.957Z,28.73
2019-04-30T16:57:30.305Z,28.68
2019-04-30T16:59:59.550Z,29.50
2019-04-30T17:02:30.857Z,29.44
2019-04-30T17:05:04.918Z,28.95
2019-04-30T17:07:41.599Z,28.79
2019-04-30T17:10:15.336Z,29.49
2019-04-30T17:13:04.299Z,28.51
2019-04-30T17:15:35.597Z,30.02
2019-04-30T17:18:05.582Z,29.95
2019-04-30T17:20:34.996Z,29.49
2019-04-30T17:23:04.389Z,30.47
2019-04-30T17:25:35.215Z,30.78
2019-04-30T17:28:05.497Z,31.12
2019-04-30T17:30:34.985Z,30.93
2019-04-30T17:33:04.585Z,30.78
2019-04-30T17:35:34.029Z,31.70
2019-04-30T17:38:03.421Z,32.69
2019-04-30T17:40:32.835Z,32.11
2019-04-30T17:43:02.231Z,32.05
2019-04-30T17:45:31.726Z,31.86
2019-04-30T17:48:01.194Z,31.09
2019-04-30T17:50:30.591Z,32.33
2019-04-30T17:53:00.704Z,32.95
2019-04-30T17:55:30.259Z,33.63
2019-04-30T17:57:59.682Z,34.65
2019-04-30T18:00:30.711Z,35.12
2019-04-30T18:03:00.186Z,35.66
2019-04-30T18:05:29.587Z,35.79
2019-04-30T18:07:59.003Z,36.46
2019-04-30T18:10:28.766Z,36.67
2019-04-30T18:12:58.184Z,36.11
2019-04-30T18:15:29.230Z,36.54
2019-04-30T18:18:00.379Z,36.87
2019-04-30T18:20:39.103Z,37.43
2019-04-30T18:23:15.616Z,38.17
2019-04-30T18:25:46.675Z,39.14
2019-04-30T18:28:16.104Z,39.53
2019-04-30T18:30:45.516Z,40.65
2019-04-30T18:33:14.930Z,41.17
2019-04-30T18:35:44.328Z,42.74
2019-04-30T18:38:13.740Z,42.77
2019-04-30T18:40:43.148Z,41.53
2019-04-30T18:43:12.757Z,40.93
2019-04-30T18:45:42.158Z,41.08
2019-04-30T18:48:11.603Z,42.13
2019-04-30T18:50:40.993Z,41.59
2019-04-30T18:53:14.759Z,41.80
2019-04-30T18:55:44.166Z,41.08
2019-04-30T18:58:13.581Z,40.95
2019-04-30T19:00:44.562Z,42.68
2019-04-30T19:03:13.981Z,43.61
2019-04-30T19:05:45.100Z,43.80
2019-04-30T19:08:22.186Z,45.21
2019-04-30T19:10:56.375Z,45.39
2019-04-30T19:13:33.073Z,46.14
2019-04-30T19:16:24.709Z,46.89
2019-04-30T19:18:54.908Z,47.46
2019-04-30T19:21:24.474Z,47.62
2019-04-30T19:23:53.924Z,48.49
2019-04-30T19:26:26.587Z,47.22
2019-04-30T19:28:57.707Z,47.16
2019-04-30T19:31:29.472Z,47.34
2019-04-30T19:33:58.942Z,47.85
2019-04-30T19:36:37.186Z,48.02
2019-04-30T19:38:59.808Z,47.79
2019-04-30T19:41:29.421Z,48.23
2019-04-30T19:43:58.924Z,48.40
2019-04-30T19:46:29.418Z,48.94
2019-04-30T19:48:58.936Z,49.31
2019-04-30T19:51:29.644Z,49.61
2019-04-30T19:53:59.879Z,49.90
2019-04-30T19:56:32.505Z,50.27
2019-04-30T19:59:05.295Z,50.74
2019-04-30T20:01:31.655Z,50.85
2019-04-30T20:04:01.065Z,50.87
2019-04-30T20:06:30.487Z,50.42
2019-04-30T20:09:00.824Z,51.21
2019-04-30T20:11:30.314Z,51.54
2019-04-30T20:13:59.741Z,52.05
2019-04-30T20:16:29.178Z,51.79
2019-04-30T20:18:59.201Z,52.17
2019-04-30T20:21:45.403Z,51.57
2019-04-30T20:24:00.223Z,51.38
2019-04-30T20:26:29.657Z,51.94
2019-04-30T20:28:59.194Z,52.18
2019-04-30T20:31:28.844Z,51.89
2019-04-30T20:33:59.122Z,51.69
2019-04-30T20:36:29.374Z,51.45
2019-04-30T20:39:00.413Z,51.39
2019-04-30T20:41:31.555Z,51.39
2019-04-30T20:44:01.024Z,51.42
2019-04-30T20:46:35.045Z,51.25
2019-04-30T20:49:01.568Z,51.39
2019-04-30T20:51:31.074Z,51.75
2019-04-30T20:54:00.490Z,52.07
2019-04-30T20:56:29.982Z,51.19
2019-04-30T20:59:04.550Z,51.63
2019-04-30T21:01:30.526Z,52.22
2019-04-30T21:03:59.930Z,52.41
2019-04-30T21:06:29.817Z,52.04
2019-04-30T21:08:59.392Z,52.44
2019-04-30T21:11:28.824Z,52.87
2019-04-30T21:13:59.120Z,52.70
2019-04-30T21:16:28.574Z,52.81
2019-04-30T21:18:57.994Z,52.99
2019-04-30T21:21:28.737Z,53.22
2019-04-30T21:23:58.308Z,53.76
2019-04-30T21:26:27.751Z,53.82
2019-04-30T21:29:10.432Z,54.13
2019-04-30T21:31:46.072Z,54.49
2019-04-30T21:34:19.894Z,54.60
2019-04-30T21:36:49.653Z,54.48
2019-04-30T21:39:20.110Z,54.88
2019-04-30T21:41:49.633Z,55.12
2019-04-30T21:44:19.047Z,55.44
2019-04-30T21:46:48.471Z,55.81
2019-04-30T21:49:17.877Z,56.04
2019-04-30T21:51:47.315Z,55.66
2019-04-30T21:54:16.721Z,55.90
2019-04-30T21:56:46.179Z,54.98
2019-04-30T21:59:24.074Z,55.32
2019-04-30T22:01:46.818Z,56.29
2019-04-30T22:04:16.367Z,56.62
2019-04-30T22:06:46.019Z,56.53
2019-04-30T22:09:15.521Z,56.63
2019-04-30T22:11:44.922Z,56.34
2019-04-30T22:14:15.041Z,55.98
2019-04-30T22:16:44.487Z,55.95
2019-04-30T22:19:13.883Z,56.43
2019-04-30T22:21:43.285Z,56.03
2019-04-30T22:24:12.715Z,56.70
2019-04-30T22:26:42.127Z,56.90
2019-04-30T22:29:11.556Z,57.29
2019-04-30T22:31:40.978Z,57.96
2019-04-30T22:34:10.487Z,59.01
2019-04-30T22:36:41.547Z,59.31
2019-04-30T22:39:15.748Z,59.65
2019-04-30T22:41:45.140Z,60.18
2019-04-30T22:44:14.654Z,60.83
2019-04-30T22:46:44.137Z,61.64
2019-04-30T22:49:13.564Z,61.36
2019-04-30T22:51:42.977Z,61.17
2019-04-30T22:54:12.469Z,60.91
2019-04-30T22:56:41.887Z,60.45
2019-04-30T22:59:11.378Z,60.32
2019-04-30T23:02:00.238Z,59.84
2019-04-30T23:04:40.004Z,59.55
2019-04-30T23:07:09.564Z,59.79
2019-04-30T23:09:39.001Z,60.10
2019-04-30T23:12:08.419Z,59.84
2019-04-30T23:14:37.850Z,60.49
2019-04-30T23:17:07.608Z,60.50
2019-04-30T23:19:37.174Z,61.12
2019-04-30T23:22:06.596Z,61.72
2019-04-30T23:24:36.015Z,62.19
2019-04-30T23:27:05.426Z,62.40
2019-04-30T23:29:34.853Z,62.53
2019-04-30T23:32:04.264Z,62.80
2019-04-30T23:34:33.691Z,63.08
2019-04-30T23:37:03.204Z,63.06
2019-04-30T23:39:32.736Z,63.22
2019-04-30T23:42:02.149Z,63.51
2019-04-30T23:44:31.579Z,63.43
2019-04-30T23:47:00.995Z,63.88
2019-04-30T23:49:30.421Z,64.12
2019-04-30T23:51:59.844Z,64.16
2019-04-30T23:54:29.263Z,64.51
2019-04-30T23:56:58.681Z,64.62
2019-04-30T23:59:28.099Z,64.35
